Aviation Digital Data Service (ADDS)

Output produced by METARs form (1643 UTC 30 March 2017)
found at http://aviationweather.gov/adds/metars/
 
METAR text: KSPB 301553Z AUTO 28005KT 10SM BKN034 BKN047 08/04 A3019 RMK AO2 SLP222 T00780044
Conditions at: KSPB (SCAPPOOSE , OR, US) observed 1553 UTC 30 March 2017
Temperature: 7.8°C (46°F)
Dewpoint: 4.4°C (40°F) [RH = 79%]
Pressure (altimeter): 30.19 inches Hg (1022.4 mb)
[Sea-level pressure: 1022.2 mb]
Winds: from the W (280 degrees) at 6 MPH (5 knots; 2.6 m/s)
Visibility: 10 or more miles (16+ km)
Ceiling: 3400 feet AGL
Clouds: broken clouds at 3400 feet AGL
broken clouds at 4700 feet AGL
Weather: automated observation with no human augmentation;
there may or may not be significant weather present at this time

METAR text: KSPB 301453Z AUTO 00000KT 10SM OVC036 06/05 A3017 RMK AO2 RAE01 SLP215 P0000 60000 T00610050 53013
Conditions at: KSPB (SCAPPOOSE , OR, US) observed 1453 UTC 30 March 2017
Temperature: 6.1°C (43°F)
Dewpoint: 5.0°C (41°F) [RH = 93%]
Pressure (altimeter): 30.17 inches Hg (1021.8 mb)
[Sea-level pressure: 1021.5 mb]
Winds: calm
Visibility: 10 or more miles (16+ km)
Ceiling: 3600 feet AGL
Clouds: overcast cloud deck at 3600 feet AGL
Weather: automated observation with no human augmentation;
there may or may not be significant weather present at this time